Terminal Aerodrome Forecast
Issued by NWS

Home | Current Version | Previous Version | Text Only | Print | Product List | Glossary On
Versions: 1 2 3 4 5 6 7 8 9 10 11 12 13
000
FTUS45 KABQ 272000 AAA
TAFLVS
TAF AMD
KLVS 272001Z 2720/2818 04008KT P6SM FEW250
     FM272100 19013G23KT P6SM SCT150
     FM280300 36006KT P6SM SKC
     FM281700 20007KT P6SM SKC=

USA.gov is the U.S. government's official web portal to all federal, state and local government web resources and services.